Aérodrome :
LOGIN :

S'inscrire | Disclaimer

   EN    FR    IT 

 










Légende :    VFR   VFR Marginal   IFR   IFR Intensif   IFR Très Intensif
Visi : 
Plafond : 
>= 8 km
>= 3000ft
5 à 8 km
1000 à 3000 ft
1500m à 5 km
500 à 1000 ft
800 à 1500m
200 à 500 ft
< 800m
< 200 ft
Symboles :   Orages  Brouillard  Fortes neiges  Fortes précipitations  Vent > 20 kt
SIGMETs :   Divers  Orages  Givrage  Turbulence  Onde Orograph.  Cendres Volcan.







- Altitude de l'aérodrome : 220 ft
- Code IATA : CWL
- Voir les cartes d'approche


EGFF - Cardiff Rhoose

DERNIER METAR :
  • 250020Z AUTO 29004KT 1000 BR BKN001 OVC034 15/15 Q1018

METARs EXPIRÉS :
  • 242350Z AUTO 29004KT 1400 BR BKN026 BKN030 15/14 Q1018
  • 242320Z AUTO 35005KT 3300 BR OVC023 15/15 Q1018
  • 242250Z AUTO 35002KT 1000 BR SCT003 BKN024 15/14 Q1018
  • 242220Z AUTO 33004KT 3600 BR BKN004 15/15 Q1018
  • 242150Z AUTO 30004KT 3800 BR BKN003 15/15 Q1018

TAF TAF EGFF
Valide du 25 à 00h jusqu'au 26 à 00h UTC


242257Z 2500/2524 30003KT 5000 BR SCT005
PROB30
TEMPO 2500/2505 0800 FG BKN001
BECMG 2507/2510 9999 NSW SCT025
TEMPO 2517/2524 4000 BR BKN010
ATIS : +44 1446 729 319
Pas de NOTAMs connus pour ce terrain.



MET'MAP, la Météo Aéronautique d'un coup d'oeil ! - Copyright ORBIFLY Décembre 2007 - Disclaimer

ORBIFLY MET'MAP TEAM :

Programmation & Développement : Alexandra Zaïnal
Conception & Développement : Baudouin d'Aumeries
Co-Programmation & Développement : Marc-Olivier Méhu
Soutien technique & logistique : Manuel Goepfert

Contact : metmap@orbifly.com




SOURCES & CREDITS :

   NOAA